createdAt,value
2023-03-05T00:01:22.624Z,62.60
2023-03-05T00:03:49.976Z,59.45
2023-03-05T00:06:17.420Z,56.80
2023-03-05T00:08:44.390Z,59.75
2023-03-05T00:11:12.849Z,63.20
2023-03-05T00:13:39.926Z,62.08
2023-03-05T00:16:09.605Z,62.67
2023-03-05T00:18:36.708Z,61.13
2023-03-05T00:21:04.476Z,67.75
2023-03-05T00:23:31.426Z,66.75
2023-03-05T00:26:01.843Z,67.38
2023-03-05T00:28:28.523Z,61.40
2023-03-05T00:30:59.063Z,65.43
2023-03-05T00:33:25.757Z,66.95
2023-03-05T00:35:52.551Z,70.25
2023-03-05T00:38:19.466Z,66.80
2023-03-05T00:40:46.248Z,65.40
2023-03-05T00:43:12.973Z,67.68
2023-03-05T00:45:39.697Z,69.53
2023-03-05T00:48:06.745Z,67.45
2023-03-05T00:50:33.424Z,71.05
2023-03-05T00:53:00.158Z,65.22
2023-03-05T00:55:26.885Z,70.75
2023-03-05T00:57:53.588Z,61.20
2023-03-05T01:00:20.636Z,70.13
2023-03-05T01:02:47.442Z,69.07
2023-03-05T01:05:15.395Z,70.82
2023-03-05T01:07:42.283Z,68.10
2023-03-05T01:10:09.933Z,69.63
2023-03-05T01:12:36.749Z,65.88
2023-03-05T01:15:04.347Z,69.70
2023-03-05T01:17:31.168Z,67.40
2023-03-05T01:19:57.879Z,71.28
2023-03-05T01:22:24.657Z,70.38
2023-03-05T01:24:51.336Z,71.38
2023-03-05T01:27:18.021Z,73.57
2023-03-05T01:29:44.766Z,70.75
2023-03-05T01:32:11.532Z,73.50
2023-03-05T01:34:38.246Z,76.25
2023-03-05T01:37:05.052Z,76.70
2023-03-05T01:39:31.826Z,70.10
2023-03-05T01:41:58.500Z,80.32
2023-03-05T01:44:29.293Z,75.75
2023-03-05T01:46:56.543Z,71.93
2023-03-05T01:49:24.735Z,79.18
2023-03-05T01:52:20.062Z,79.63
2023-03-05T01:54:50.681Z,79.55
2023-03-05T01:57:22.747Z,77.75
2023-03-05T01:59:55.719Z,72.85
2023-03-05T02:02:22.663Z,76.68
2023-03-05T02:04:57.398Z,75.85
2023-03-05T02:07:25.414Z,76.70
2023-03-05T02:09:52.289Z,69.93
2023-03-05T02:12:19.157Z,80.90
2023-03-05T02:14:48.399Z,72.65
2023-03-05T02:17:16.013Z,75.10
2023-03-05T02:19:51.030Z,77.07
2023-03-05T02:22:19.739Z,75.60
2023-03-05T02:24:46.699Z,69.72
2023-03-05T02:27:14.542Z,75.82
2023-03-05T02:29:44.877Z,74.32
2023-03-05T02:32:12.655Z,74.60
2023-03-05T02:34:39.908Z,73.95
2023-03-05T02:37:09.114Z,70.25
2023-03-05T02:39:36.192Z,71.05
2023-03-05T02:42:03.221Z,67.90
2023-03-05T02:44:30.118Z,75.25
2023-03-05T02:46:56.991Z,73.93
2023-03-05T02:49:23.726Z,77.88
2023-03-05T02:51:50.536Z,73.47
2023-03-05T02:54:17.259Z,71.75
2023-03-05T02:56:44.004Z,76.03
2023-03-05T02:59:10.751Z,81.32
2023-03-05T03:01:37.548Z,79.75
2023-03-05T03:04:04.742Z,71.13
2023-03-05T03:06:31.485Z,72.95
2023-03-05T03:08:58.709Z,78.43
2023-03-05T03:11:25.583Z,68.85
2023-03-05T03:13:52.327Z,70.93
2023-03-05T03:16:19.233Z,76.78
2023-03-05T03:18:47.547Z,75.82
2023-03-05T03:21:24.076Z,80.50
2023-03-05T03:23:51.181Z,79.80
2023-03-05T03:26:18.308Z,73.45
2023-03-05T03:28:45.147Z,73.03
2023-03-05T03:31:12.138Z,72.53
2023-03-05T03:33:38.924Z,74.05
2023-03-05T03:36:06.079Z,74.20
2023-03-05T03:38:32.894Z,70.97
2023-03-05T03:40:59.654Z,75.05
2023-03-05T03:43:26.487Z,77.05
2023-03-05T03:45:53.317Z,77.10
2023-03-05T03:48:20.152Z,78.80
2023-03-05T03:50:46.901Z,78.53
2023-03-05T03:53:14.317Z,80.93
2023-03-05T03:55:46.594Z,76.78
2023-03-05T03:58:13.643Z,77.85
2023-03-05T04:00:41.597Z,75.65
2023-03-05T04:03:08.749Z,78.20
2023-03-05T04:05:35.478Z,73.07
2023-03-05T04:08:03.500Z,71.55
2023-03-05T04:10:30.390Z,77.65
2023-03-05T04:12:57.201Z,75.63
2023-03-05T04:15:24.916Z,77.15
2023-03-05T04:17:51.787Z,73.97
2023-03-05T04:20:18.588Z,74.63
2023-03-05T04:22:45.382Z,75.85
2023-03-05T04:25:12.076Z,73.00
2023-03-05T04:27:40.352Z,72.50
2023-03-05T04:30:10.179Z,75.40
2023-03-05T04:32:36.907Z,74.90
2023-03-05T04:35:03.956Z,72.60
2023-03-05T04:37:30.676Z,77.45
2023-03-05T04:39:57.454Z,75.57
2023-03-05T04:42:24.422Z,78.45
2023-03-05T04:44:51.589Z,77.60
2023-03-05T04:47:19.428Z,78.70
2023-03-05T04:49:46.291Z,74.07
2023-03-05T04:52:14.482Z,75.50
2023-03-05T04:54:41.596Z,78.85
2023-03-05T04:57:08.607Z,78.45
2023-03-05T04:59:36.297Z,82.78
2023-03-05T05:02:03.217Z,80.10
2023-03-05T05:04:29.975Z,75.25
2023-03-05T05:06:57.555Z,68.43
2023-03-05T05:09:25.029Z,79.03
2023-03-05T05:11:52.030Z,77.03
2023-03-05T05:14:19.269Z,76.07
2023-03-05T05:16:46.211Z,73.47
2023-03-05T05:19:12.945Z,79.35
2023-03-05T05:21:39.905Z,80.47
2023-03-05T05:24:07.031Z,73.57
2023-03-05T05:26:33.783Z,76.10
2023-03-05T05:29:00.525Z,76.30
2023-03-05T05:31:27.569Z,78.57
2023-03-05T05:33:54.350Z,77.80
2023-03-05T05:36:22.352Z,74.10
2023-03-05T05:38:49.265Z,84.28
2023-03-05T05:41:18.306Z,72.25
2023-03-05T05:43:45.177Z,70.60
2023-03-05T05:46:15.124Z,73.65
2023-03-05T05:48:41.957Z,75.10
2023-03-05T05:51:11.675Z,73.00
2023-03-05T05:53:38.891Z,76.40
2023-03-05T05:56:07.805Z,76.43
2023-03-05T05:58:35.310Z,70.15
2023-03-05T06:01:02.403Z,77.30
2023-03-05T06:03:29.257Z,83.05
2023-03-05T06:05:56.375Z,77.85
2023-03-05T06:08:23.050Z,71.82
2023-03-05T06:10:55.854Z,69.30
2023-03-05T06:13:22.592Z,72.28
2023-03-05T06:15:57.244Z,80.25
2023-03-05T06:18:24.022Z,74.63
2023-03-05T06:21:02.620Z,77.50
2023-03-05T06:23:29.583Z,74.10
2023-03-05T06:26:00.008Z,76.63
2023-03-05T06:28:27.233Z,75.07
2023-03-05T06:31:08.575Z,75.45
2023-03-05T06:33:35.979Z,75.18
2023-03-05T06:36:08.991Z,71.88
2023-03-05T06:38:36.458Z,75.43
2023-03-05T06:41:09.282Z,77.72
2023-03-05T06:43:38.554Z,75.55
2023-03-05T06:46:12.356Z,76.07
2023-03-05T06:48:39.673Z,77.40
2023-03-05T06:51:14.336Z,77.20
2023-03-05T06:53:41.195Z,77.47
2023-03-05T06:56:08.032Z,75.97
2023-03-05T06:58:34.752Z,71.55
2023-03-05T07:01:01.626Z,75.63
2023-03-05T07:03:28.441Z,79.47
2023-03-05T07:05:55.149Z,78.50
2023-03-05T07:08:21.870Z,77.43
2023-03-05T07:10:48.603Z,73.55
2023-03-05T07:13:15.317Z,71.00
2023-03-05T07:15:43.749Z,68.13
2023-03-05T07:18:10.586Z,71.32
2023-03-05T07:20:37.683Z,74.93
2023-03-05T07:23:04.966Z,76.70
2023-03-05T07:25:32.008Z,76.68
2023-03-05T07:27:58.977Z,73.55
2023-03-05T07:30:25.721Z,76.03
2023-03-05T07:32:52.398Z,75.90
2023-03-05T07:35:19.175Z,70.78
2023-03-05T07:37:45.919Z,75.85
2023-03-05T07:40:12.803Z,77.53
2023-03-05T07:42:39.527Z,73.15
2023-03-05T07:45:07.052Z,74.63
2023-03-05T07:47:33.820Z,74.72
2023-03-05T07:50:00.743Z,74.57
2023-03-05T07:52:27.537Z,77.07
2023-03-05T07:54:54.236Z,81.35
2023-03-05T07:57:20.929Z,80.70
2023-03-05T07:59:47.754Z,81.90
2023-03-05T08:02:14.840Z,75.03
2023-03-05T08:04:43.094Z,77.88
2023-03-05T08:07:09.861Z,88.07
2023-03-05T08:09:36.654Z,85.38
2023-03-05T08:12:03.471Z,80.90
2023-03-05T08:14:30.252Z,73.18
2023-03-05T08:16:56.967Z,82.88
2023-03-05T08:19:23.926Z,81.32
2023-03-05T08:21:50.738Z,81.28
2023-03-05T08:24:17.536Z,80.93
2023-03-05T08:26:44.416Z,79.22
2023-03-05T08:29:11.801Z,81.00
2023-03-05T08:31:39.429Z,76.20
2023-03-05T08:34:06.286Z,80.20
2023-03-05T08:36:33.314Z,82.18
2023-03-05T08:39:00.410Z,75.28
2023-03-05T08:41:27.130Z,77.10
2023-03-05T08:43:53.940Z,74.50
2023-03-05T08:46:20.985Z,77.68
2023-03-05T08:48:47.759Z,84.03
2023-03-05T08:51:17.302Z,81.15
2023-03-05T08:53:45.171Z,74.95
2023-03-05T08:56:12.255Z,80.80
2023-03-05T08:58:39.165Z,86.68
2023-03-05T09:01:06.545Z,76.72
2023-03-05T09:03:33.290Z,82.10
2023-03-05T09:06:06.789Z,80.53
2023-03-05T09:08:34.238Z,83.07
2023-03-05T09:11:06.198Z,88.80
2023-03-05T09:13:33.581Z,81.78
2023-03-05T09:16:03.261Z,78.97
2023-03-05T09:18:31.128Z,75.95
2023-03-05T09:20:57.925Z,77.00
2023-03-05T09:23:25.095Z,78.53
2023-03-05T09:25:51.781Z,73.95
2023-03-05T09:28:18.850Z,79.55
2023-03-05T09:30:45.657Z,73.85
2023-03-05T09:33:12.759Z,75.78
2023-03-05T09:35:39.573Z,76.68
2023-03-05T09:38:06.385Z,83.88
2023-03-05T09:41:03.473Z,80.95
2023-03-05T09:43:43.704Z,76.60
2023-03-05T09:46:32.821Z,80.55
2023-03-05T09:49:18.584Z,80.82
2023-03-05T09:51:47.057Z,82.78
2023-03-05T09:54:19.105Z,82.55
2023-03-05T09:56:53.352Z,74.07
2023-03-05T09:59:29.140Z,71.72
2023-03-05T10:02:01.379Z,70.72
2023-03-05T10:05:04.558Z,74.57
2023-03-05T10:07:34.456Z,72.90
2023-03-05T10:10:05.406Z,72.38
2023-03-05T10:12:43.062Z,72.70
2023-03-05T10:15:43.646Z,72.57
2023-03-05T10:18:46.374Z,63.08
2023-03-05T10:21:24.336Z,67.22
2023-03-05T10:24:17.056Z,69.57
2023-03-05T10:26:48.626Z,71.38
2023-03-05T10:29:40.169Z,65.13
2023-03-05T10:32:11.901Z,68.53
2023-03-05T10:34:53.028Z,61.03
2023-03-05T10:37:40.789Z,61.10
2023-03-05T10:40:32.535Z,63.88
2023-03-05T10:43:12.519Z,64.10
2023-03-05T10:45:42.417Z,62.22
2023-03-05T10:48:38.842Z,71.30
2023-03-05T10:51:36.347Z,62.88
2023-03-05T10:54:15.533Z,62.65
2023-03-05T10:56:42.291Z,63.13
2023-03-05T10:59:09.042Z,56.63
2023-03-05T11:01:37.388Z,58.95
2023-03-05T11:04:07.417Z,54.70
2023-03-05T11:06:45.741Z,55.05
2023-03-05T11:09:22.218Z,54.58
2023-03-05T11:12:18.329Z,53.97
2023-03-05T11:15:03.016Z,56.42
2023-03-05T11:17:33.831Z,53.92
2023-03-05T11:20:19.337Z,50.17
2023-03-05T11:23:18.675Z,52.35
2023-03-05T11:26:04.183Z,53.00
2023-03-05T11:28:34.015Z,52.85
2023-03-05T11:31:16.221Z,46.80
2023-03-05T11:34:00.992Z,46.08
2023-03-05T11:36:40.913Z,41.30
2023-03-05T11:39:07.751Z,45.95
2023-03-05T11:41:44.933Z,43.90
2023-03-05T11:44:16.532Z,39.67
2023-03-05T11:46:51.027Z,39.47
2023-03-05T11:49:27.432Z,42.97
2023-03-05T11:52:26.260Z,36.38
2023-03-05T11:54:55.701Z,39.60
2023-03-05T11:57:25.172Z,34.97
2023-03-05T11:59:55.224Z,34.22
2023-03-05T12:02:27.958Z,38.85
2023-03-05T12:04:56.041Z,35.60
2023-03-05T12:07:34.866Z,39.60
2023-03-05T12:10:02.255Z,36.83
2023-03-05T12:12:55.129Z,35.25
2023-03-05T12:15:30.957Z,42.35
2023-03-05T12:18:20.620Z,37.38
2023-03-05T12:21:06.126Z,36.03
2023-03-05T12:26:13.971Z,35.47
2023-03-05T12:28:45.799Z,29.52
2023-03-05T12:31:27.041Z,34.08
2023-03-05T12:33:54.175Z,37.17
2023-03-05T12:36:20.988Z,33.92
2023-03-05T12:38:55.400Z,31.15
2023-03-05T12:41:27.852Z,37.28
2023-03-05T12:44:07.003Z,35.53
2023-03-05T12:46:42.588Z,33.17
2023-03-05T12:49:18.864Z,36.53
2023-03-05T12:51:48.073Z,37.05
2023-03-05T12:54:29.711Z,32.83
2023-03-05T12:56:59.020Z,33.78
2023-03-05T12:59:39.205Z,32.70
2023-03-05T13:02:21.387Z,39.33
2023-03-05T13:04:48.686Z,32.35
2023-03-05T13:07:17.673Z,30.45
2023-03-05T13:09:58.843Z,30.17
2023-03-05T13:12:28.630Z,31.88
2023-03-05T13:15:03.769Z,31.00
2023-03-05T13:18:07.464Z,28.20
2023-03-05T13:20:38.650Z,37.97
2023-03-05T13:23:16.490Z,26.40
2023-03-05T13:26:04.298Z,30.95
2023-03-05T13:28:32.777Z,35.20
2023-03-05T13:31:03.764Z,34.40
2023-03-05T13:33:33.578Z,27.02
2023-03-05T13:36:00.633Z,33.05
2023-03-05T13:38:40.307Z,26.73
2023-03-05T13:41:27.502Z,26.60
2023-03-05T13:43:55.754Z,32.42
2023-03-05T13:46:31.377Z,31.15
2023-03-05T13:49:18.054Z,33.65
2023-03-05T13:51:47.645Z,28.05
2023-03-05T13:54:17.020Z,29.50
2023-03-05T13:56:54.388Z,29.15
2023-03-05T13:59:24.230Z,25.25
2023-03-05T14:01:52.672Z,26.50
2023-03-05T14:04:22.457Z,29.08
2023-03-05T14:07:00.238Z,29.38
2023-03-05T14:09:48.600Z,32.72
2023-03-05T14:12:21.369Z,28.50
2023-03-05T14:14:48.685Z,31.92
2023-03-05T14:17:24.145Z,29.98
2023-03-05T14:19:52.134Z,32.45
2023-03-05T14:22:37.682Z,29.13
2023-03-05T14:25:07.014Z,28.23
2023-03-05T14:27:35.885Z,28.95
2023-03-05T14:30:04.896Z,29.45
2023-03-05T14:32:37.056Z,29.65
2023-03-05T14:35:05.888Z,34.65
2023-03-05T14:37:42.735Z,31.58
2023-03-05T14:40:12.529Z,31.23
2023-03-05T14:43:00.049Z,29.60
2023-03-05T14:45:28.773Z,33.22
2023-03-05T14:47:58.639Z,30.50
2023-03-05T14:50:51.545Z,34.17
2023-03-05T14:53:20.416Z,32.28
2023-03-05T14:55:50.620Z,35.17
2023-03-05T14:58:25.189Z,32.42
2023-03-05T15:00:53.575Z,29.83
2023-03-05T15:03:21.942Z,32.00
2023-03-05T15:05:52.227Z,30.77
2023-03-05T15:08:22.429Z,27.80
2023-03-05T15:10:52.121Z,28.48
2023-03-05T15:13:19.390Z,29.52
2023-03-05T15:15:47.831Z,29.83
2023-03-05T15:18:17.490Z,28.08
2023-03-05T15:20:45.316Z,27.77
2023-03-05T15:23:12.891Z,36.28
2023-03-05T15:25:39.776Z,28.13
2023-03-05T15:28:06.604Z,30.23
2023-03-05T15:30:36.831Z,31.77
2023-03-05T15:33:06.787Z,29.75
2023-03-05T15:35:33.746Z,28.38
2023-03-05T15:38:00.822Z,32.80
2023-03-05T15:40:28.385Z,30.70
2023-03-05T15:42:56.604Z,25.73
2023-03-05T15:45:23.857Z,30.35
2023-03-05T15:47:51.824Z,31.20
2023-03-05T15:50:20.441Z,29.92
2023-03-05T15:52:47.353Z,31.83
2023-03-05T15:55:14.202Z,34.28
2023-03-05T15:57:44.775Z,33.67
2023-03-05T16:00:12.883Z,27.10
2023-03-05T16:02:39.637Z,33.92
2023-03-05T16:05:07.350Z,32.08
2023-03-05T16:07:36.936Z,33.72
2023-03-05T16:10:04.263Z,34.30
2023-03-05T16:12:40.765Z,27.77
2023-03-05T16:15:10.361Z,29.40
2023-03-05T16:17:38.561Z,29.88
2023-03-05T16:20:06.020Z,35.83
2023-03-05T16:22:33.221Z,31.63
2023-03-05T16:25:01.282Z,33.10
2023-03-05T16:27:29.517Z,30.70
2023-03-05T16:29:56.372Z,34.80
2023-03-05T16:32:23.134Z,35.83
2023-03-05T16:34:49.985Z,32.72
2023-03-05T16:37:22.190Z,32.08
2023-03-05T16:39:49.580Z,28.48
2023-03-05T16:42:16.948Z,25.38
2023-03-05T16:44:44.766Z,28.05
2023-03-05T16:47:12.260Z,36.85
2023-03-05T16:49:39.858Z,29.30
2023-03-05T16:52:18.448Z,30.85
2023-03-05T16:54:46.895Z,31.58
2023-03-05T16:57:13.909Z,27.75
2023-03-05T16:59:41.464Z,28.70
2023-03-05T17:02:08.206Z,31.60
2023-03-05T17:04:35.353Z,28.02
2023-03-05T17:07:04.023Z,31.70
2023-03-05T17:09:30.914Z,29.45
2023-03-05T17:11:57.714Z,31.20
2023-03-05T17:14:24.536Z,30.75
2023-03-05T17:16:51.247Z,28.33
2023-03-05T17:19:18.254Z,34.95
2023-03-05T17:21:45.273Z,34.70
2023-03-05T17:24:12.257Z,28.35
2023-03-05T17:26:39.361Z,36.58
2023-03-05T17:29:06.820Z,38.67
2023-03-05T17:31:34.129Z,34.08
2023-03-05T17:34:00.920Z,35.17
2023-03-05T17:36:27.763Z,38.10
2023-03-05T17:38:54.853Z,36.47
2023-03-05T17:41:22.036Z,27.70
2023-03-05T17:43:49.165Z,24.10
2023-03-05T17:46:16.834Z,18.92
2023-03-05T17:48:44.156Z,16.10
2023-03-05T17:51:13.092Z,15.35
2023-03-05T17:53:40.343Z,15.38
2023-03-05T17:56:12.172Z,14.18
2023-03-05T17:58:39.700Z,13.25
2023-03-05T18:01:07.921Z,12.85
2023-03-05T18:03:36.052Z,11.32
2023-03-05T18:06:03.792Z,11.60
2023-03-05T18:08:30.781Z,14.30
2023-03-05T18:10:57.690Z,13.80
2023-03-05T18:13:24.527Z,12.73
2023-03-05T18:15:51.283Z,11.00
2023-03-05T18:18:18.714Z,16.08
2023-03-05T18:20:45.881Z,19.13
2023-03-05T18:23:13.074Z,14.35
2023-03-05T18:25:40.038Z,10.43
2023-03-05T18:28:09.667Z,11.77
2023-03-05T18:30:37.188Z,11.95
2023-03-05T18:33:04.547Z,14.75
2023-03-05T18:35:32.253Z,17.13
2023-03-05T18:37:59.609Z,15.75
2023-03-05T18:40:29.338Z,16.92
2023-03-05T18:42:56.149Z,17.63
2023-03-05T18:45:23.668Z,17.85
2023-03-05T18:47:54.065Z,19.38
2023-03-05T18:50:23.633Z,17.70
2023-03-05T18:52:50.384Z,13.85
2023-03-05T18:55:20.367Z,14.10
2023-03-05T18:57:47.230Z,18.13
2023-03-05T19:00:19.741Z,17.27
2023-03-05T19:02:46.985Z,15.75
2023-03-05T19:05:15.035Z,22.50
2023-03-05T19:07:42.076Z,16.10
2023-03-05T19:10:12.305Z,14.00
2023-03-05T19:13:50.231Z,17.88
2023-03-05T19:16:22.876Z,19.48
2023-03-05T19:19:22.484Z,16.25
2023-03-05T19:21:59.599Z,20.65
2023-03-05T19:24:28.701Z,15.95
2023-03-05T19:26:58.160Z,19.00
2023-03-05T19:29:26.967Z,21.60
2023-03-05T19:31:54.627Z,20.40
2023-03-05T19:34:21.707Z,17.30
2023-03-05T19:36:48.439Z,20.33
2023-03-05T19:39:15.613Z,17.40
2023-03-05T19:41:42.608Z,17.77
2023-03-05T19:44:09.332Z,19.67
2023-03-05T19:46:36.166Z,19.38
2023-03-05T19:49:03.133Z,19.90
2023-03-05T19:51:30.011Z,18.90
2023-03-05T19:53:56.764Z,27.27
2023-03-05T19:56:23.584Z,23.17
2023-03-05T19:58:50.865Z,22.65
2023-03-05T20:01:22.048Z,20.95
2023-03-05T20:03:54.899Z,21.50
2023-03-05T20:06:23.530Z,20.92
2023-03-05T20:08:50.691Z,23.00
2023-03-05T20:11:18.967Z,24.52
2023-03-05T20:13:46.469Z,22.20
2023-03-05T20:16:19.534Z,19.40
2023-03-05T20:18:47.187Z,23.20
2023-03-05T20:21:21.371Z,20.15
2023-03-05T20:23:49.459Z,19.35
2023-03-05T20:26:16.701Z,26.50
2023-03-05T20:28:44.202Z,27.48
2023-03-05T20:31:11.512Z,22.02
2023-03-05T20:33:38.945Z,22.77
2023-03-05T20:36:06.229Z,24.00
2023-03-05T20:38:33.410Z,25.58
2023-03-05T20:41:01.404Z,27.73
2023-03-05T20:43:31.644Z,24.20
2023-03-05T20:45:59.297Z,26.77
2023-03-05T20:48:28.781Z,26.52
2023-03-05T20:50:56.537Z,30.08
2023-03-05T20:53:25.204Z,28.40
2023-03-05T20:55:52.143Z,34.42
2023-03-05T20:58:19.240Z,34.28
2023-03-05T21:00:46.149Z,28.73
2023-03-05T21:03:13.352Z,29.92
2023-03-05T21:05:40.477Z,28.02
2023-03-05T21:08:07.563Z,24.08
2023-03-05T21:10:34.726Z,32.15
2023-03-05T21:13:01.886Z,27.85
2023-03-05T21:15:30.524Z,31.73
2023-03-05T21:17:58.295Z,29.15
2023-03-05T21:20:30.111Z,34.72
2023-03-05T21:22:58.137Z,28.08
2023-03-05T21:25:32.960Z,36.13
2023-03-05T21:28:01.369Z,31.07
2023-03-05T21:30:43.816Z,25.33
2023-03-05T21:33:19.539Z,30.67
2023-03-05T21:35:46.754Z,29.75
2023-03-05T21:38:14.444Z,33.25
2023-03-05T21:40:44.500Z,36.78
2023-03-05T21:43:13.532Z,26.77
2023-03-05T21:45:41.478Z,26.90
2023-03-05T21:48:09.351Z,36.00
2023-03-05T21:50:39.420Z,28.73
2023-03-05T21:53:06.284Z,28.52
2023-03-05T21:56:25.320Z,32.20
2023-03-05T21:58:53.616Z,33.33
2023-03-05T22:01:21.250Z,27.90
2023-03-05T22:03:49.454Z,27.30
2023-03-05T22:06:17.828Z,35.70
2023-03-05T22:08:44.673Z,31.48
2023-03-05T22:11:14.568Z,31.17
2023-03-05T22:13:42.138Z,31.02
2023-03-05T22:16:09.243Z,27.58
2023-03-05T22:18:37.140Z,30.52
2023-03-05T22:21:04.766Z,35.00
2023-03-05T22:23:36.693Z,31.23
2023-03-05T22:26:06.478Z,34.03
2023-03-05T22:28:34.335Z,31.15
2023-03-05T22:31:01.725Z,31.17
2023-03-05T22:33:28.926Z,35.08
2023-03-05T22:35:55.717Z,29.67
2023-03-05T22:38:23.543Z,30.38
2023-03-05T22:40:50.832Z,33.75
2023-03-05T22:43:18.937Z,28.50
2023-03-05T22:45:45.653Z,33.80
2023-03-05T22:48:14.166Z,32.75
2023-03-05T22:50:43.808Z,26.92
2023-03-05T22:53:11.262Z,34.42
2023-03-05T22:55:41.105Z,30.65
2023-03-05T22:58:08.034Z,29.77
2023-03-05T23:00:34.817Z,39.20
2023-03-05T23:03:01.778Z,29.77
2023-03-05T23:05:28.569Z,33.33
2023-03-05T23:07:55.360Z,33.20
2023-03-05T23:10:26.927Z,25.65
2023-03-05T23:12:55.700Z,31.55
2023-03-05T23:15:26.921Z,29.63
2023-03-05T23:17:54.056Z,30.35
2023-03-05T23:20:23.444Z,33.70
2023-03-05T23:22:52.917Z,36.92
2023-03-05T23:25:20.524Z,37.25
2023-03-05T23:27:47.287Z,35.10
2023-03-05T23:30:21.191Z,30.13
2023-03-05T23:32:54.630Z,36.55
2023-03-05T23:35:24.749Z,26.13
2023-03-05T23:37:52.543Z,31.70
2023-03-05T23:40:27.420Z,32.17
2023-03-05T23:42:54.537Z,32.08
2023-03-05T23:45:22.659Z,30.20
2023-03-05T23:47:49.938Z,31.98
2023-03-05T23:50:21.466Z,28.48
2023-03-05T23:52:49.210Z,29.42
2023-03-05T23:55:22.512Z,30.67
2023-03-05T23:57:49.334Z,26.52
